Time;durP1;ratioP1;P1;durP2;ratioP2;P2;SDS_P1;SDS_P2;PMS_P1;PMS_P2;Temp;Humidity;BMP_temperature;BMP_pressure;BME280_temperature;BME280_humidity;BME280_pressure;Samples;Min_cycle;Max_cycle;Signal;HPM_P1;HPM_P2
2022/08/10 00:02:19;;;;;;;12.02;5.30;;;;;;;22.97;58.82;100605.50;5093952;28;20393;-89
2022/08/10 00:04:50;;;;;;;8.63;5.00;;;;;;;23.02;58.66;100606.69;5078476;28;20038;-90
2022/08/10 00:07:20;;;;;;;8.40;5.05;;;;;;;22.93;58.57;100587.84;5059394;28;20032;-89
2022/08/10 00:09:49;;;;;;;7.78;5.03;;;;;;;22.97;58.53;100586.28;5055632;28;20165;-92
2022/08/10 00:12:18;;;;;;;8.32;4.60;;;;;;;23.04;58.25;100604.53;5056370;28;20468;-89
2022/08/10 00:14:45;;;;;;;10.48;5.07;;;;;;;22.95;58.88;100585.72;5082913;28;20021;-93
2022/08/10 00:17:14;;;;;;;8.35;4.45;;;;;;;23.00;58.58;100606.09;5040268;28;20401;-92
2022/08/10 00:19:42;;;;;;;14.30;5.03;;;;;;;22.88;58.42;100601.47;5060946;28;20160;-93
2022/08/10 00:22:12;;;;;;;13.18;4.78;;;;;;;22.94;58.28;100589.53;5053919;28;20086;-90
2022/08/10 00:24:40;;;;;;;12.50;4.65;;;;;;;22.89;58.46;100586.66;5090197;28;20071;-91
2022/08/10 00:27:07;;;;;;;10.68;4.80;;;;;;;22.71;58.06;100560.31;5084952;28;20035;-88
2022/08/10 00:29:34;;;;;;;7.72;4.55;;;;;;;22.85;57.91;100579.19;5082279;28;20424;-89
2022/08/10 00:32:01;;;;;;;7.22;4.68;;;;;;;22.83;58.30;100586.81;5057573;28;20316;-92
2022/08/10 00:34:31;;;;;;;9.32;4.50;;;;;;;22.76;58.18;100593.28;5066259;28;20059;-91
2022/08/10 00:36:57;;;;;;;8.40;4.85;;;;;;;22.70;58.47;100577.81;5079007;28;20040;-92
2022/08/10 00:39:27;;;;;;;5.93;4.50;;;;;;;22.72;58.21;100581.13;5091331;28;20048;-93
2022/08/10 00:41:58;;;;;;;5.93;4.85;;;;;;;22.73;58.33;100587.44;5068345;28;20055;-92
2022/08/10 00:44:29;;;;;;;7.65;4.85;;;;;;;22.67;58.28;100596.66;5079433;28;20029;-94
2022/08/10 00:46:59;;;;;;;6.63;4.40;;;;;;;22.65;58.51;100598.81;5081802;28;20052;-92
2022/08/10 00:49:30;;;;;;;14.45;4.60;;;;;;;22.68;58.34;100579.13;5068090;28;20139;-93
2022/08/10 00:51:56;;;;;;;6.78;4.47;;;;;;;22.64;58.25;100577.94;5077356;28;20039;-91
2022/08/10 00:54:23;;;;;;;6.68;4.45;;;;;;;22.62;58.19;100596.56;5059449;28;20043;-92
2022/08/10 00:56:50;;;;;;;8.38;4.70;;;;;;;22.60;58.16;100579.53;5052245;28;20030;-94
2022/08/10 00:59:17;;;;;;;7.65;4.80;;;;;;;22.63;57.94;100590.00;5041936;28;20048;-92
2022/08/10 01:01:45;;;;;;;9.48;4.55;;;;;;;22.61;58.03;100589.41;5079000;28;20032;-89
2022/08/10 01:04:11;;;;;;;6.68;4.40;;;;;;;22.60;58.26;100587.75;5074109;28;20032;-92
2022/08/10 01:06:55;;;;;;;9.35;4.90;;;;;;;22.66;57.85;100592.22;5059921;28;20108;-92
2022/08/10 01:09:52;;;;;;;9.75;4.70;;;;;;;22.70;57.68;100590.69;5059601;28;20107;-93
2022/08/10 01:12:54;;;;;;;9.65;4.68;;;;;;;22.66;57.76;100592.22;5063007;28;20055;-93
2022/08/10 01:15:44;;;;;;;7.72;4.70;;;;;;;22.60;57.83;100594.03;5064231;28;20054;-89
2022/08/10 01:18:38;;;;;;;7.40;4.65;;;;;;;22.59;57.90;100591.53;5089865;28;21245;-92
2022/08/10 01:21:19;;;;;;;8.43;4.60;;;;;;;22.55;57.73;100585.72;5088704;28;20066;-91
2022/08/10 01:24:04;;;;;;;6.88;4.47;;;;;;;22.61;57.31;100578.44;5071879;28;20058;-89
2022/08/10 01:26:41;;;;;;;10.75;4.82;;;;;;;22.61;57.39;100592.97;5075446;28;20067;-91
2022/08/10 01:29:42;;;;;;;9.82;4.85;;;;;;;22.63;57.17;100576.28;5076130;28;20020;-89
2022/08/10 01:32:09;;;;;;;8.60;4.90;;;;;;;22.57;57.24;100571.78;5031175;28;20045;-91
2022/08/10 01:34:45;;;;;;;7.82;4.70;;;;;;;22.59;57.11;100580.59;5037769;28;20082;-92
2022/08/10 01:37:13;;;;;;;8.48;4.60;;;;;;;22.45;56.95;100563.59;5032371;28;20445;-91
2022/08/10 01:39:41;;;;;;;6.82;4.97;;;;;;;22.54;57.27;100567.59;5044096;28;20056;-90
2022/08/10 01:42:12;;;;;;;10.88;4.90;;;;;;;22.54;56.83;100576.66;5060454;28;20481;-91
2022/08/10 01:45:03;;;;;;;14.18;4.60;;;;;;;22.62;56.81;100574.63;5031402;28;20029;-91
2022/08/10 01:50:29;;;;;;;6.72;4.60;;;;;;;22.58;56.69;100573.44;5041919;28;20135;-91
2022/08/10 01:53:01;;;;;;;8.02;4.75;;;;;;;22.62;56.50;100580.13;5044655;28;20465;-91
2022/08/10 01:55:29;;;;;;;8.13;4.80;;;;;;;22.59;56.56;100573.19;5051973;28;20477;-92
2022/08/10 01:57:54;;;;;;;7.60;4.68;;;;;;;22.62;56.51;100574.63;5024124;28;20527;-89
2022/08/10 02:00:22;;;;;;;5.85;4.80;;;;;;;22.55;56.60;100586.56;5082080;28;20048;-86
2022/08/10 02:02:52;;;;;;;7.10;5.15;;;;;;;22.55;56.39;100570.13;5068694;28;20025;-87
2022/08/10 02:05:18;;;;;;;5.45;4.88;;;;;;;22.61;56.28;100594.88;5043855;28;20048;-90
2022/08/10 02:07:45;;;;;;;7.20;4.60;;;;;;;22.67;56.26;100591.19;5055314;28;20033;-91
2022/08/10 02:10:14;;;;;;;6.55;5.50;;;;;;;22.54;56.29;100578.56;5065391;28;20028;-91
2022/08/10 02:12:42;;;;;;;8.95;5.40;;;;;;;22.67;56.00;100589.25;5057830;28;20052;-91
2022/08/10 02:15:12;;;;;;;8.23;5.32;;;;;;;22.67;56.04;100577.47;5040701;28;20058;-91
2022/08/10 02:17:39;;;;;;;8.00;4.78;;;;;;;22.69;55.79;100589.03;5073988;28;20119;-90
2022/08/10 02:20:09;;;;;;;7.05;4.60;;;;;;;22.66;55.76;100578.53;5044057;28;20060;-92
2022/08/10 02:22:39;;;;;;;11.18;5.00;;;;;;;22.68;55.36;100573.66;5027287;28;20041;-91
2022/08/10 02:25:09;;;;;;;11.55;5.63;;;;;;;22.77;55.17;100580.41;5013967;28;20045;-92
2022/08/10 02:27:36;;;;;;;6.43;4.93;;;;;;;22.72;54.95;100586.63;5028947;28;20047;-89
2022/08/10 02:30:05;;;;;;;10.88;5.18;;;;;;;22.79;54.67;100581.00;5006138;28;20045;-91
2022/08/10 02:32:32;;;;;;;9.38;5.30;;;;;;;22.77;54.70;100573.00;5031762;28;20055;-90
2022/08/10 02:34:59;;;;;;;9.30;5.40;;;;;;;22.64;54.81;100587.00;5053525;28;20041;-93
2022/08/10 02:37:37;;;;;;;8.60;5.40;;;;;;;22.64;54.33;100566.97;5036256;28;20033;-94
2022/08/10 02:40:09;;;;;;;7.05;5.18;;;;;;;22.75;54.40;100582.56;5075109;28;20102;-90
2022/08/10 02:42:53;;;;;;;7.35;4.90;;;;;;;22.78;54.41;100590.31;5066052;28;20025;-88
2022/08/10 02:45:24;;;;;;;7.50;5.07;;;;;;;22.80;54.12;100588.13;5059449;28;20128;-93
2022/08/10 02:48:18;;;;;;;7.25;5.20;;;;;;;22.79;53.99;100591.13;5041846;28;20048;-86
2022/08/10 02:50:49;;;;;;;8.00;5.07;;;;;;;22.79;53.84;100593.88;5049785;28;20048;-90
2022/08/10 02:53:29;;;;;;;6.75;4.82;;;;;;;22.91;53.51;100595.50;5053984;28;20112;-92
2022/08/10 02:56:12;;;;;;;8.80;5.32;;;;;;;22.87;53.64;100593.47;5030752;28;20025;-89
2022/08/10 02:58:41;;;;;;;7.45;5.28;;;;;;;22.82;53.67;100596.94;5054043;28;20036;-90
2022/08/10 03:01:13;;;;;;;11.13;5.38;;;;;;;22.82;53.67;100596.94;5069006;28;20036;-89
2022/08/10 03:04:06;;;;;;;6.88;5.13;;;;;;;22.87;53.42;100605.25;5051797;28;20127;-92
2022/08/10 03:06:43;;;;;;;9.23;5.32;;;;;;;22.81;53.26;100606.25;5064345;28;20118;-91
2022/08/10 03:09:12;;;;;;;6.50;5.63;;;;;;;22.79;53.16;100600.19;5032923;28;20056;-91
2022/08/10 03:11:40;;;;;;;11.43;5.82;;;;;;;22.78;53.07;100604.00;5019996;28;20512;-88
2022/08/10 03:14:07;;;;;;;6.00;5.40;;;;;;;22.82;53.35;100618.06;5055637;28;20032;-90
2022/08/10 03:16:32;;;;;;;7.72;5.60;;;;;;;22.82;53.03;100618.88;5033123;28;20060;-92
2022/08/10 03:18:59;;;;;;;7.75;5.47;;;;;;;22.86;53.00;100617.31;5022631;28;20064;-92
2022/08/10 03:21:26;;;;;;;9.98;5.60;;;;;;;22.84;52.71;100616.72;5050076;28;20041;-90
2022/08/10 03:23:51;;;;;;;6.32;5.60;;;;;;;22.84;52.83;100605.75;5046549;28;20103;-91
2022/08/10 03:26:19;;;;;;;8.00;5.78;;;;;;;22.90;52.65;100607.53;5024535;28;20430;-87
2022/08/10 03:28:46;;;;;;;9.15;5.53;;;;;;;22.95;52.35;100618.59;5033753;28;20079;-91
2022/08/10 03:31:20;;;;;;;7.82;5.75;;;;;;;22.99;52.53;100616.22;5070081;28;20113;-91
2022/08/10 03:33:52;;;;;;;10.10;5.45;;;;;;;23.03;52.63;100619.31;5072307;28;20113;-91
2022/08/10 03:36:23;;;;;;;7.70;5.57;;;;;;;23.03;52.57;100616.56;5054376;28;20017;-91
2022/08/10 03:38:52;;;;;;;9.70;5.45;;;;;;;23.03;52.48;100608.34;5046043;28;20048;-92
2022/08/10 03:41:57;;;;;;;9.02;5.70;;;;;;;23.02;52.37;100613.00;5053341;28;20039;-92
2022/08/10 03:44:26;;;;;;;6.53;5.63;;;;;;;23.03;52.42;100616.56;5060773;28;20033;-92
2022/08/10 03:47:02;;;;;;;9.32;5.93;;;;;;;23.03;52.49;100608.34;5071375;28;20036;-86
2022/08/10 03:49:30;;;;;;;6.20;5.40;;;;;;;23.02;52.77;100610.28;5078015;28;20071;-88
2022/08/10 03:51:59;;;;;;;7.82;5.43;;;;;;;23.08;52.04;100609.28;5050827;28;20036;-92
2022/08/10 03:54:32;;;;;;;9.85;5.55;;;;;;;23.16;52.13;100608.06;5057142;28;20063;-92
2022/08/10 03:57:06;;;;;;;9.73;5.68;;;;;;;23.20;52.24;100633.06;5066259;28;20033;-93
2022/08/10 03:59:35;;;;;;;7.57;5.55;;;;;;;23.26;51.80;100621.13;5083647;28;20028;-90
2022/08/10 04:02:00;;;;;;;8.27;5.60;;;;;;;23.28;51.47;100600.59;5086551;28;20541;-93
2022/08/10 04:04:26;;;;;;;9.45;5.32;;;;;;;23.47;50.97;100619.59;5069023;28;20216;-92
2022/08/10 04:06:53;;;;;;;7.50;5.28;;;;;;;23.56;50.75;100632.66;5061581;28;20108;-93
2022/08/10 04:09:20;;;;;;;8.90;5.40;;;;;;;23.66;50.29;100622.94;5043229;28;20524;-93
2022/08/10 04:11:54;;;;;;;10.30;5.72;;;;;;;23.72;50.64;100617.28;5062429;28;20036;-92
2022/08/10 04:14:22;;;;;;;9.32;5.93;;;;;;;23.78;50.36;100632.75;5060289;28;20077;-87
2022/08/10 04:16:51;;;;;;;7.32;5.43;;;;;;;23.72;50.47;100617.28;5059011;28;20052;-93
2022/08/10 04:19:17;;;;;;;7.65;5.53;;;;;;;23.88;50.22;100620.28;5068618;28;20032;-92
2022/08/10 04:21:51;;;;;;;6.50;5.45;;;;;;;23.82;50.32;100626.78;5079876;28;20031;-93
2022/08/10 04:24:21;;;;;;;6.43;5.20;;;;;;;23.91;50.10;100625.31;5071388;28;20135;-89
2022/08/10 04:26:47;;;;;;;8.75;5.53;;;;;;;23.92;50.44;100629.69;5066978;28;20113;-91
2022/08/10 04:29:14;;;;;;;8.63;5.50;;;;;;;23.87;50.75;100637.84;5046590;28;20041;-94
2022/08/10 04:31:40;;;;;;;8.60;5.30;;;;;;;23.96;50.52;100639.94;5082108;28;20052;-93
2022/08/10 04:34:06;;;;;;;9.93;5.20;;;;;;;23.96;50.15;100628.13;5058044;28;20507;-91
2022/08/10 04:36:31;;;;;;;10.02;5.90;;;;;;;23.95;50.08;100620.94;5066908;28;20040;-90
2022/08/10 04:39:01;;;;;;;8.52;5.32;;;;;;;23.99;50.30;100633.94;5068112;28;20040;-92
2022/08/10 04:42:24;;;;;;;7.25;5.07;;;;;;;24.01;50.06;100641.91;5070844;28;20028;-91
2022/08/10 04:44:49;;;;;;;12.13;5.20;;;;;;;24.06;49.89;100642.00;5094770;28;20036;-95
2022/08/10 04:47:16;;;;;;;9.65;5.60;;;;;;;24.04;50.12;100640.59;5073608;28;20112;-95
2022/08/10 04:49:46;;;;;;;11.73;5.28;;;;;;;24.08;49.90;100637.09;5095412;28;20012;-90
2022/08/10 04:52:13;;;;;;;12.25;5.57;;;;;;;24.44;48.65;100640.34;5082881;28;20173;-92
2022/08/10 04:54:39;;;;;;;11.63;5.78;;;;;;;24.84;47.85;100633.75;5079073;28;20112;-92
2022/08/10 04:57:08;;;;;;;10.88;5.57;;;;;;;24.85;47.18;100616.19;5064020;28;20056;-93
2022/08/10 04:59:44;;;;;;;9.90;5.50;;;;;;;25.24;46.63;100616.94;5076434;28;20047;-93
2022/08/10 05:02:14;;;;;;;10.52;5.28;;;;;;;25.48;46.25;100625.69;5072017;28;20028;-91
2022/08/10 05:04:55;;;;;;;7.72;5.05;;;;;;;25.64;45.54;100626.66;5064887;28;20035;-93
2022/08/10 05:07:30;;;;;;;13.25;5.32;;;;;;;25.78;45.26;100620.69;5055044;28;20344;-92
2022/08/10 05:10:02;;;;;;;14.23;4.97;;;;;;;25.87;45.12;100625.50;5059331;28;20040;-93
2022/08/10 05:12:57;;;;;;;10.15;4.93;;;;;;;26.09;44.66;100630.06;5078383;28;20059;-91
2022/08/10 05:15:26;;;;;;;7.90;4.97;;;;;;;26.22;44.61;100631.50;5079868;28;20380;-90
2022/08/10 05:17:55;;;;;;;9.90;4.70;;;;;;;26.24;44.33;100621.06;5058925;28;20463;-90
2022/08/10 05:20:24;;;;;;;7.85;4.70;;;;;;;26.32;44.32;100631.59;5059619;28;20032;-92
2022/08/10 05:22:52;;;;;;;8.95;4.95;;;;;;;26.54;43.67;100645.22;5051807;28;20149;-90
2022/08/10 05:25:19;;;;;;;8.30;4.78;;;;;;;26.57;43.67;100647.44;5080771;28;20024;-92
2022/08/10 05:27:51;;;;;;;11.65;4.90;;;;;;;26.67;43.33;100643.94;5058790;28;20047;-91
2022/08/10 05:30:20;;;;;;;10.60;4.82;;;;;;;26.71;43.02;100614.69;5062458;28;20052;-90
2022/08/10 05:32:46;;;;;;;5.40;4.53;;;;;;;26.91;42.56;100611.19;5048388;28;20040;-91
2022/08/10 05:35:15;;;;;;;8.70;4.32;;;;;;;27.00;42.47;100636.34;5056080;28;20049;-91
2022/08/10 05:37:45;;;;;;;14.68;4.65;;;;;;;27.10;42.09;100630.84;5064348;28;20054;-91
2022/08/10 05:40:13;;;;;;;10.18;4.43;;;;;;;27.19;42.02;100631.97;5069928;28;21508;-91
2022/08/10 05:42:40;;;;;;;11.38;4.53;;;;;;;27.35;41.69;100644.72;5078899;28;20047;-92
2022/08/10 05:45:16;;;;;;;6.53;4.32;;;;;;;27.52;41.43;100658.28;5060428;28;20031;-90
2022/08/10 05:47:42;;;;;;;9.63;4.30;;;;;;;27.55;41.03;100637.56;5081835;28;20042;-88
2022/08/10 05:50:08;;;;;;;8.77;4.35;;;;;;;27.65;40.63;100637.59;5068604;28;20043;-90
2022/08/10 05:52:34;;;;;;;10.45;4.57;;;;;;;27.80;40.25;100647.81;5036246;28;21087;-87
2022/08/10 05:55:01;;;;;;;6.60;4.05;;;;;;;27.93;40.38;100633.47;5067947;28;20086;-90
2022/08/10 05:57:28;;;;;;;6.90;4.13;;;;;;;27.95;39.85;100642.28;5049096;28;20064;-88
2022/08/10 05:59:59;;;;;;;8.98;4.40;;;;;;;27.93;40.06;100640.91;5040058;28;20043;-87
2022/08/10 06:02:28;;;;;;;8.02;4.00;;;;;;;27.99;39.83;100637.88;5056129;28;20040;-89
2022/08/10 06:05:05;;;;;;;6.47;3.83;;;;;;;28.14;40.40;100637.03;5056325;28;20037;-91
2022/08/10 06:07:32;;;;;;;4.72;3.80;;;;;;;28.28;39.18;100639.22;5079545;28;20040;-88
2022/08/10 06:09:57;;;;;;;7.38;4.20;;;;;;;28.55;39.35;100634.19;5064573;28;20050;-86
2022/08/10 06:12:26;;;;;;;9.05;4.10;;;;;;;28.48;39.48;100644.72;5055134;28;20036;-88
2022/08/10 06:15:01;;;;;;;6.35;3.97;;;;;;;28.58;39.56;100633.63;5053456;28;20448;-83
2022/08/10 06:17:31;;;;;;;9.30;4.13;;;;;;;28.66;39.28;100626.69;5048595;28;20032;-87
2022/08/10 06:20:00;;;;;;;7.10;3.80;;;;;;;28.86;38.79;100641.53;5053659;28;20032;-89
2022/08/10 06:22:31;;;;;;;10.85;4.15;;;;;;;28.88;38.67;100615.25;5076472;28;20043;-89
2022/08/10 06:24:59;;;;;;;13.75;4.18;;;;;;;29.02;38.62;100654.19;5050942;28;20032;-82
2022/08/10 06:27:24;;;;;;;8.60;4.07;;;;;;;28.99;38.77;100639.00;5056556;28;20197;-85
2022/08/10 06:29:50;;;;;;;11.45;4.10;;;;;;;28.93;38.40;100622.69;5080080;28;20553;-82
2022/08/10 06:32:26;;;;;;;7.45;3.83;;;;;;;28.99;38.20;100650.06;5038215;28;20032;-85
2022/08/10 06:34:54;;;;;;;7.72;3.50;;;;;;;28.99;38.20;100640.94;5068247;28;20028;-86
2022/08/10 06:37:22;;;;;;;7.47;3.65;;;;;;;29.14;38.22;100628.97;5088682;28;20029;-85
2022/08/10 06:39:50;;;;;;;13.57;4.05;;;;;;;29.23;37.63;100644.69;5058963;28;20040;-85
2022/08/10 06:42:19;;;;;;;6.80;3.53;;;;;;;29.57;37.35;100640.31;5082369;28;20132;-86
2022/08/10 06:45:27;;;;;;;10.45;3.95;;;;;;;29.87;36.88;100642.03;5081350;28;20016;-85
2022/08/10 06:48:03;;;;;;;9.82;3.53;;;;;;;30.28;35.88;100641.69;5082445;28;20522;-87
2022/08/10 06:50:40;;;;;;;5.82;3.63;;;;;;;30.36;35.72;100638.25;5087623;28;20036;-90
2022/08/10 06:53:11;;;;;;;9.80;3.55;;;;;;;30.44;35.70;100639.56;5074552;28;20040;-88
2022/08/10 06:55:45;;;;;;;8.55;3.80;;;;;;;30.43;35.91;100649.81;5086035;28;20128;-90
2022/08/10 06:58:13;;;;;;;7.30;3.53;;;;;;;30.44;35.70;100643.16;5093925;28;20067;-92
2022/08/10 07:00:42;;;;;;;11.32;3.78;;;;;;;30.35;35.51;100631.06;5043070;28;20082;-90
2022/08/10 07:03:15;;;;;;;7.95;3.47;;;;;;;30.43;35.28;100647.03;5086357;28;20039;-88
2022/08/10 07:05:53;;;;;;;9.10;3.65;;;;;;;30.52;34.93;100627.81;5059190;28;20158;-88
2022/08/10 07:08:22;;;;;;;8.77;3.65;;;;;;;30.50;35.00;100636.41;5078756;28;20053;-90
2022/08/10 07:10:50;;;;;;;13.02;3.58;;;;;;;30.61;34.84;100647.41;5060112;28;20028;-89
2022/08/10 07:13:16;;;;;;;7.25;3.50;;;;;;;30.84;34.49;100652.16;5040367;28;20046;-87
2022/08/10 07:15:42;;;;;;;13.48;3.17;;;;;;;30.79;34.39;100656.88;5068602;28;20102;-88
2022/08/10 07:18:11;;;;;;;8.63;3.50;;;;;;;30.99;34.28;100653.06;5064460;28;20075;-90
2022/08/10 07:20:37;;;;;;;5.65;3.80;;;;;;;31.03;34.57;100643.84;5097624;28;20074;-86
2022/08/10 07:23:05;;;;;;;8.77;3.90;;;;;;;31.32;34.46;100659.53;5074125;28;20063;-90
2022/08/10 07:25:33;;;;;;;7.50;3.70;;;;;;;31.50;34.15;100636.50;5073877;28;20101;-90
2022/08/10 07:28:04;;;;;;;12.98;4.05;;;;;;;31.62;32.90;100652.72;5054958;28;20093;-89
2022/08/10 07:30:32;;;;;;;13.40;3.45;;;;;;;31.84;32.26;100654.03;5053424;28;20043;-90
2022/08/10 07:33:03;;;;;;;16.17;3.80;;;;;;;31.71;32.95;100655.63;5065087;28;20055;-89
2022/08/10 07:35:32;;;;;;;13.77;3.60;;;;;;;31.98;32.65;100649.34;5090153;28;20079;-90
2022/08/10 07:38:01;;;;;;;7.95;3.55;;;;;;;31.90;32.64;100642.53;5067755;28;20052;-90
2022/08/10 07:40:28;;;;;;;7.90;3.65;;;;;;;31.90;32.20;100636.97;5058622;28;20036;-90
2022/08/10 07:42:58;;;;;;;12.55;3.47;;;;;;;31.88;31.71;100660.63;5054222;28;20036;-89
2022/08/10 07:45:30;;;;;;;12.25;3.90;;;;;;;32.14;31.76;100647.94;5061932;28;20025;-89
2022/08/10 07:48:02;;;;;;;7.65;3.67;;;;;;;32.50;31.73;100646.44;5090202;28;20028;-92
2022/08/10 07:50:30;;;;;;;10.45;3.58;;;;;;;32.51;31.85;100651.75;5064422;28;20020;-90
2022/08/10 07:53:00;;;;;;;7.97;3.40;;;;;;;32.58;31.54;100652.16;5037629;28;20033;-87
2022/08/10 07:55:27;;;;;;;15.38;3.55;;;;;;;32.69;30.82;100632.47;5041786;28;20616;-94
2022/08/10 07:57:58;;;;;;;12.55;3.78;;;;;;;32.80;30.15;100653.38;5070514;28;20047;-92
2022/08/10 08:00:26;;;;;;;7.53;3.20;;;;;;;32.91;30.01;100665.13;5075991;28;20097;-90
2022/08/10 08:02:55;;;;;;;11.15;3.70;;;;;;;33.05;30.11;100645.66;5074937;28;20035;-91
2022/08/10 08:05:25;;;;;;;6.55;3.75;;;;;;;33.25;29.95;100642.41;5047738;28;20032;-89
2022/08/10 08:07:52;;;;;;;5.70;3.40;;;;;;;33.70;29.79;100642.47;5055770;28;20045;-91
2022/08/10 08:10:18;;;;;;;8.57;3.53;;;;;;;34.01;29.70;100647.25;5080402;28;20075;-93
2022/08/10 08:12:45;;;;;;;13.10;3.95;;;;;;;34.13;29.00;100644.72;5050101;28;20043;-93
2022/08/10 08:15:17;;;;;;;9.82;3.78;;;;;;;34.22;28.59;100653.94;5024111;28;20033;-92
2022/08/10 08:17:44;;;;;;;9.77;3.83;;;;;;;34.88;27.85;100644.84;5067299;28;20036;-93
2022/08/10 08:20:13;;;;;;;14.40;3.40;;;;;;;35.10;27.62;100643.91;5068981;28;20032;-92
2022/08/10 08:22:38;;;;;;;10.52;3.50;;;;;;;34.86;27.62;100641.56;5060430;28;20409;-90
2022/08/10 08:25:05;;;;;;;6.93;3.75;;;;;;;35.42;26.89;100655.78;5039844;28;20467;-89
2022/08/10 08:27:31;;;;;;;9.90;3.50;;;;;;;35.85;25.71;100647.41;5037896;28;20040;-95
2022/08/10 08:29:58;;;;;;;7.38;3.75;;;;;;;36.14;25.35;100646.69;5059758;28;20068;-91
2022/08/10 08:32:25;;;;;;;6.40;3.35;;;;;;;36.42;24.99;100653.84;5069862;28;20024;-92
2022/08/10 08:35:13;;;;;;;6.53;3.65;;;;;;;36.17;25.12;100647.16;5045783;28;20140;-89
2022/08/10 08:37:48;;;;;;;9.57;3.55;;;;;;;36.39;25.49;100660.94;5089625;28;20048;-91
2022/08/10 08:40:38;;;;;;;6.38;3.50;;;;;;;36.58;25.19;100665.28;5056472;28;20028;-93
2022/08/10 08:43:27;;;;;;;8.00;3.63;;;;;;;36.84;25.03;100654.78;5062092;28;20035;-93
2022/08/10 08:46:16;;;;;;;9.15;3.65;;;;;;;37.04;25.58;100675.59;5052505;28;20037;-91
2022/08/10 08:48:50;;;;;;;6.88;3.60;;;;;;;37.05;25.26;100682.84;5062491;28;20041;-91
2022/08/10 08:51:19;;;;;;;9.63;4.53;;;;;;;37.92;24.12;100664.50;5098187;28;20094;-87
2022/08/10 08:53:48;;;;;;;9.13;4.07;;;;;;;38.32;23.99;100667.53;5098652;28;20064;-92
2022/08/10 08:56:20;;;;;;;8.98;4.13;;;;;;;38.60;23.79;100673.31;5063516;28;20036;-90
2022/08/10 08:58:51;;;;;;;13.88;4.10;;;;;;;38.84;23.07;100683.75;5057608;28;20038;-89
2022/08/10 09:01:40;;;;;;;13.07;4.55;;;;;;;39.56;22.59;100690.81;5094321;28;20044;-91
2022/08/10 09:04:34;;;;;;;9.18;4.78;;;;;;;40.65;21.24;100685.75;5061580;28;20051;-87
2022/08/10 09:07:27;;;;;;;8.63;3.63;;;;;;;40.31;21.55;100692.94;5084397;28;20075;-87
2022/08/10 09:10:07;;;;;;;11.40;4.55;;;;;;;41.20;20.38;100701.97;5089684;28;20020;-89
2022/08/10 09:12:45;;;;;;;7.15;4.95;;;;;;;40.74;20.91;100693.22;5053149;28;20059;-89
2022/08/10 09:15:44;;;;;;;10.25;3.70;;;;;;;41.44;19.61;100704.50;5089452;28;20055;-88
2022/08/10 09:18:33;;;;;;;6.72;4.53;;;;;;;41.97;19.32;100710.47;5070802;28;20064;-89
2022/08/10 09:21:24;;;;;;;10.52;3.65;;;;;;;43.55;17.80;100712.25;5042691;28;20073;-90
2022/08/10 09:24:10;;;;;;;6.88;3.50;;;;;;;42.50;18.51;100703.38;5055186;28;20043;-89
2022/08/10 09:26:49;;;;;;;9.93;3.65;;;;;;;40.82;20.64;100726.84;5055984;28;20123;-85
2022/08/10 09:29:26;;;;;;;14.52;4.88;;;;;;;42.24;19.45;100723.88;5051760;28;20115;-86
2022/08/10 09:32:09;;;;;;;8.75;4.28;;;;;;;41.55;19.99;100721.69;5064760;28;20054;-86
2022/08/10 09:35:06;;;;;;;12.57;3.90;;;;;;;38.91;22.70;100710.44;5067373;28;20052;-85
2022/08/10 09:37:45;;;;;;;8.38;4.63;;;;;;;38.13;24.10;100712.19;5062308;28;20029;-84
2022/08/10 09:40:28;;;;;;;9.85;4.20;;;;;;;37.74;24.67;100719.97;5027158;28;20040;-82
2022/08/10 09:43:20;;;;;;;10.43;3.97;;;;;;;37.73;24.56;100718.34;5073736;28;20102;-84
2022/08/10 09:46:07;;;;;;;9.55;4.50;;;;;;;36.77;26.02;100704.91;5065728;28;20063;-84
2022/08/10 09:48:50;;;;;;;8.25;5.28;;;;;;;36.52;25.77;100720.63;5072075;28;20149;-86
2022/08/10 09:51:42;;;;;;;13.98;4.32;;;;;;;35.56;27.13;100711.53;5059659;28;20106;-86
2022/08/10 09:54:17;;;;;;;9.77;4.38;;;;;;;35.22;27.43;100724.34;5060233;28;20032;-85
2022/08/10 09:57:18;;;;;;;7.57;5.10;;;;;;;36.79;25.50;100719.41;5056307;28;20043;-86
2022/08/10 09:59:44;;;;;;;11.55;5.18;;;;;;;36.44;25.65;100721.50;5063933;28;20051;-85
2022/08/10 10:02:39;;;;;;;10.27;5.13;;;;;;;38.36;23.62;100707.81;5080161;28;20485;-84
2022/08/10 10:05:39;;;;;;;11.85;4.25;;;;;;;38.32;22.75;100697.63;5061065;28;20024;-87
2022/08/10 10:08:32;;;;;;;11.27;4.13;;;;;;;39.23;22.02;100706.66;5002946;28;20048;-85
2022/08/10 10:11:12;;;;;;;6.47;4.43;;;;;;;39.35;22.11;100707.81;5053540;28;20041;-85
2022/08/10 10:14:00;;;;;;;6.97;4.50;;;;;;;40.48;20.83;100715.13;5076719;28;20095;-86
2022/08/10 10:17:01;;;;;;;6.60;4.32;;;;;;;40.38;20.46;100707.19;5089727;28;20117;-85
2022/08/10 10:19:49;;;;;;;6.82;4.22;;;;;;;39.58;21.43;100694.88;5079769;28;20032;-87
2022/08/10 10:22:56;;;;;;;10.00;4.43;;;;;;;41.26;19.90;100709.78;5044125;28;20497;-86
2022/08/10 10:25:42;;;;;;;10.90;4.10;;;;;;;41.94;19.06;100694.28;5064625;28;20578;-86
2022/08/10 10:28:45;;;;;;;18.65;5.53;;;;;;;41.86;19.23;100717.09;5061172;28;20047;-86
2022/08/10 10:31:15;;;;;;;9.48;4.55;;;;;;;42.01;19.03;100707.75;5057645;28;20071;-87
2022/08/10 10:33:58;;;;;;;11.80;4.47;;;;;;;40.47;20.93;100699.38;5058145;28;20070;-86
2022/08/10 10:36:25;;;;;;;13.90;4.10;;;;;;;41.50;19.89;100707.88;5070082;28;20033;-87
2022/08/10 10:38:53;;;;;;;6.70;4.07;;;;;;;41.73;19.34;100711.59;5036423;28;20052;-87
2022/08/10 10:41:49;;;;;;;14.50;5.05;;;;;;;42.90;17.68;100702.03;5042803;28;20105;-86
2022/08/10 10:44:42;;;;;;;10.45;4.45;;;;;;;44.25;17.11;100705.81;5083763;28;20031;-85
2022/08/10 10:47:45;;;;;;;7.00;5.15;;;;;;;44.54;16.64;100703.25;5086038;28;20429;-87
2022/08/10 10:50:12;;;;;;;13.10;4.05;;;;;;;43.67;17.15;100703.56;5080721;28;20028;-87
2022/08/10 10:52:57;;;;;;;5.28;4.32;;;;;;;43.45;17.02;100702.41;5055652;28;20416;-89
2022/08/10 10:55:54;;;;;;;8.95;3.50;;;;;;;41.49;19.20;100711.84;5053799;28;20404;-89
2022/08/10 10:58:19;;;;;;;6.28;4.45;;;;;;;43.18;17.18;100690.34;5066448;28;20040;-91
2022/08/10 11:00:57;;;;;;;14.68;4.25;;;;;;;42.84;17.92;100684.56;5095799;28;20036;-89
2022/08/10 11:03:30;;;;;;;8.23;3.42;;;;;;;41.62;18.99;100710.56;5079993;28;20565;-89
2022/08/10 11:06:46;;;;;;;5.88;4.00;;;;;;;40.20;20.32;100698.22;5068375;28;20032;-88
2022/08/10 11:09:18;;;;;;;9.60;4.00;;;;;;;39.01;22.15;100704.38;5031084;28;20047;-87
2022/08/10 11:11:43;;;;;;;7.55;3.67;;;;;;;38.23;22.76;100680.88;5066537;28;20495;-87
2022/08/10 11:14:15;;;;;;;9.43;4.40;;;;;;;37.91;23.62;100702.97;5063200;28;20107;-88
2022/08/10 11:16:50;;;;;;;12.50;3.80;;;;;;;37.53;23.74;100708.72;5061798;28;20036;-87
2022/08/10 11:19:25;;;;;;;7.40;3.72;;;;;;;37.59;23.83;100699.78;5068792;28;20032;-87
2022/08/10 11:22:18;;;;;;;12.05;5.05;;;;;;;37.70;23.88;100693.78;5050628;28;20025;-88
2022/08/10 11:24:57;;;;;;;9.35;4.28;;;;;;;37.22;24.65;100684.72;5079729;28;20135;-87
2022/08/10 11:27:41;;;;;;;7.50;4.10;;;;;;;36.01;25.84;100700.84;5084643;28;20115;-86
2022/08/10 11:30:09;;;;;;;;;;;;;;;35.44;26.16;100687.84;5045587;28;20466;-86
2022/08/10 11:32:56;;;;;;;14.75;4.93;;;;;;;35.09;26.69;100710.13;5059257;28;19924;-86
2022/08/10 11:35:51;;;;;;;12.63;4.70;;;;;;;35.23;27.01;100709.19;5053143;28;20029;-86
2022/08/10 11:38:34;;;;;;;16.50;4.47;;;;;;;35.64;25.96;100711.56;4982000;28;20042;-88
2022/08/10 11:41:21;;;;;;;9.93;4.53;;;;;;;35.28;27.08;100709.03;5067595;28;20503;-86
2022/08/10 11:43:53;;;;;;;7.45;5.30;;;;;;;35.38;26.58;100700.34;5054738;28;20505;-88
2022/08/10 11:46:47;;;;;;;16.42;5.47;;;;;;;35.75;26.12;100700.84;5040736;28;20051;-88
2022/08/10 11:49:30;;;;;;;11.60;5.13;;;;;;;35.64;26.04;100686.41;5061366;28;20028;-87
2022/08/10 11:52:16;;;;;;;8.10;5.00;;;;;;;36.07;25.77;100702.28;5056110;28;20402;-86
2022/08/10 11:54:46;;;;;;;11.30;4.63;;;;;;;36.08;25.46;100711.50;5050369;28;20477;-86
2022/08/10 11:57:12;;;;;;;7.32;3.78;;;;;;;35.88;25.48;100697.06;5058167;28;20115;-86
2022/08/10 11:59:56;;;;;;;12.55;4.20;;;;;;;35.88;25.79;100697.06;5063483;28;20047;-87